createdAt,value
2018-12-05T00:00:47.447Z,6.57
2018-12-05T00:03:21.660Z,6.30
2018-12-05T00:05:55.671Z,5.93
2018-12-05T00:08:39.135Z,6.03
2018-12-05T00:11:33.294Z,5.37
2018-12-05T00:14:13.985Z,6.30
2018-12-05T00:16:57.594Z,5.80
2018-12-05T00:19:31.508Z,6.43
2018-12-05T00:22:05.503Z,5.50
2018-12-05T00:24:39.572Z,5.97
2018-12-05T00:27:13.828Z,5.73
2018-12-05T00:38:38.680Z,5.73
2018-12-05T00:41:12.496Z,5.70
2018-12-05T00:43:53.597Z,6.10
2018-12-05T00:46:34.998Z,5.90
2018-12-05T00:49:14.693Z,6.57
2018-12-05T00:51:51.342Z,6.10
2018-12-05T00:54:29.137Z,5.70
2018-12-05T00:57:06.676Z,5.80
2018-12-05T00:59:45.057Z,5.47
2018-12-05T01:02:22.254Z,5.50
2018-12-05T01:04:58.202Z,5.83
2018-12-05T01:07:35.214Z,6.00
2018-12-05T01:10:09.291Z,5.80
2018-12-05T01:12:43.405Z,5.50
2018-12-05T01:15:17.394Z,5.90
2018-12-05T01:17:52.983Z,5.90
2018-12-05T01:20:26.969Z,5.87
2018-12-05T01:23:02.531Z,5.50
2018-12-05T01:25:36.982Z,6.13
2018-12-05T01:28:11.045Z,5.70
2018-12-05T01:30:44.952Z,5.20
2018-12-05T01:33:18.859Z,6.13
2018-12-05T01:35:52.821Z,6.43
2018-12-05T01:38:26.838Z,6.60
2018-12-05T01:41:00.889Z,6.87
2018-12-05T01:43:40.428Z,6.73
2018-12-05T01:46:14.310Z,6.63
2018-12-05T01:48:48.550Z,7.50
2018-12-05T01:51:22.559Z,6.27
2018-12-05T01:53:56.467Z,6.47
2018-12-05T01:56:30.169Z,5.77
2018-12-05T01:59:04.399Z,5.97
2018-12-05T02:01:38.985Z,6.20
2018-12-05T02:04:13.022Z,6.10
2018-12-05T02:06:47.114Z,5.73
2018-12-05T02:09:21.131Z,6.80
2018-12-05T02:11:55.222Z,7.17
2018-12-05T02:14:29.366Z,6.13
2018-12-05T02:17:03.191Z,6.57
2018-12-05T02:19:37.143Z,7.00
2018-12-05T02:22:11.261Z,6.00
2018-12-05T02:24:45.402Z,5.57
2018-12-05T02:27:19.367Z,5.80
2018-12-05T02:29:58.439Z,5.60
2018-12-05T02:32:32.858Z,5.47
2018-12-05T02:35:06.765Z,6.07
2018-12-05T02:37:40.877Z,5.77
2018-12-05T02:40:14.594Z,6.27
2018-12-05T02:42:48.794Z,5.60
2018-12-05T02:45:22.600Z,6.40
2018-12-05T02:47:56.723Z,6.20
2018-12-05T02:50:30.528Z,5.67
2018-12-05T02:53:04.477Z,6.07
2018-12-05T02:55:38.594Z,6.53
2018-12-05T02:58:12.646Z,5.83
2018-12-05T03:00:46.554Z,6.10
2018-12-05T03:03:20.462Z,6.40
2018-12-05T03:05:54.357Z,6.60
2018-12-05T03:08:28.378Z,6.10
2018-12-05T03:11:02.196Z,5.83
2018-12-05T03:13:36.192Z,5.87
2018-12-05T03:16:09.997Z,5.93
2018-12-05T03:18:43.803Z,6.20
2018-12-05T03:21:17.677Z,5.80
2018-12-05T03:23:51.692Z,5.70
2018-12-05T03:26:25.783Z,6.53
2018-12-05T03:28:59.799Z,6.03
2018-12-05T03:31:33.945Z,6.17
2018-12-05T03:34:07.963Z,6.20
2018-12-05T03:36:41.869Z,6.20
2018-12-05T03:39:15.776Z,6.30
2018-12-05T03:41:49.581Z,5.90
2018-12-05T03:44:23.605Z,7.60
2018-12-05T03:46:57.764Z,7.63
2018-12-05T03:49:31.867Z,7.93
2018-12-05T03:52:06.030Z,7.93
2018-12-05T03:54:40.142Z,7.53
2018-12-05T03:57:14.458Z,8.03
2018-12-05T03:59:48.366Z,8.00
2018-12-05T04:02:22.194Z,7.63
2018-12-05T04:04:56.282Z,7.90
2018-12-05T04:07:30.158Z,8.73
2018-12-05T04:10:04.912Z,7.20
2018-12-05T04:12:40.827Z,8.30
2018-12-05T04:15:15.087Z,8.93
2018-12-05T04:17:49.049Z,8.67
2018-12-05T04:20:23.103Z,8.30
2018-12-05T04:22:57.009Z,7.47
2018-12-05T04:25:30.819Z,7.70
2018-12-05T04:28:04.619Z,8.50
2018-12-05T04:30:38.405Z,9.23
2018-12-05T04:33:12.637Z,9.17
2018-12-05T04:35:46.512Z,14.77
2018-12-05T04:38:20.554Z,15.60
2018-12-05T04:40:54.443Z,9.97
2018-12-05T04:43:28.573Z,11.97
2018-12-05T04:46:02.424Z,11.57
2018-12-05T04:48:36.362Z,10.50
2018-12-05T04:51:10.656Z,10.40
2018-12-05T04:53:44.613Z,11.10
2018-12-05T04:56:18.628Z,11.63
2018-12-05T04:58:52.734Z,10.50
2018-12-05T05:01:26.947Z,10.37
2018-12-05T05:04:00.958Z,12.47
2018-12-05T05:06:41.442Z,11.20
2018-12-05T05:09:11.128Z,11.53
2018-12-05T05:11:44.938Z,10.27
2018-12-05T05:14:19.044Z,10.83
2018-12-05T05:16:52.951Z,11.80
2018-12-05T05:19:26.907Z,12.67
2018-12-05T05:22:01.049Z,11.40
2018-12-05T05:24:35.084Z,11.30
2018-12-05T05:27:08.989Z,11.93
2018-12-05T05:29:42.897Z,10.23
2018-12-05T05:32:16.804Z,9.53
2018-12-05T05:34:50.609Z,9.33
2018-12-05T05:37:24.721Z,8.87
2018-12-05T05:39:58.833Z,11.40
2018-12-05T05:42:32.745Z,11.50
2018-12-05T05:45:06.649Z,10.23
2018-12-05T05:47:40.759Z,11.00
2018-12-05T05:50:14.666Z,10.00
2018-12-05T05:52:48.677Z,10.60
2018-12-05T05:55:22.584Z,10.87
2018-12-05T05:57:56.491Z,9.67
2018-12-05T06:00:30.302Z,10.57
2018-12-05T06:03:04.354Z,10.33
2018-12-05T06:05:38.317Z,10.40
2018-12-05T06:08:12.409Z,9.73
2018-12-05T06:10:46.437Z,10.13
2018-12-05T06:13:20.345Z,10.47
2018-12-05T06:15:54.252Z,10.63
2018-12-05T06:18:28.167Z,8.77
2018-12-05T06:21:02.065Z,11.17
2018-12-05T06:23:35.871Z,10.77
2018-12-05T06:26:09.574Z,11.27
2018-12-05T06:28:43.583Z,11.10
2018-12-05T06:31:17.390Z,10.27
2018-12-05T06:33:51.397Z,10.73
2018-12-05T06:36:25.569Z,9.70
2018-12-05T06:38:59.622Z,9.47
2018-12-05T06:41:33.426Z,8.33
2018-12-05T06:44:07.332Z,9.70
2018-12-05T06:46:41.137Z,9.77
2018-12-05T06:49:14.991Z,9.13
2018-12-05T06:51:49.054Z,9.93
2018-12-05T06:54:23.064Z,10.07
2018-12-05T06:56:57.837Z,13.27
2018-12-05T06:59:31.918Z,14.63
2018-12-05T07:02:06.014Z,12.57
2018-12-05T07:04:39.921Z,9.07
2018-12-05T07:07:13.725Z,9.00
2018-12-05T07:09:47.791Z,9.50
2018-12-05T07:12:21.953Z,8.90
2018-12-05T07:14:55.755Z,8.67
2018-12-05T07:17:29.867Z,8.27
2018-12-05T07:20:05.256Z,8.37
2018-12-05T07:22:39.012Z,9.10
2018-12-05T07:25:12.819Z,8.13
2018-12-05T07:27:46.623Z,6.93
2018-12-05T07:30:20.529Z,8.07
2018-12-05T07:32:54.334Z,8.17
2018-12-05T07:35:28.299Z,7.60
2018-12-05T07:38:02.250Z,7.43
2018-12-05T07:40:36.055Z,7.10
2018-12-05T07:43:09.860Z,7.07
2018-12-05T07:45:43.674Z,7.80
2018-12-05T07:48:17.708Z,7.03
2018-12-05T07:50:51.786Z,7.27
2018-12-05T07:53:25.694Z,7.00
2018-12-05T07:55:59.604Z,7.33
2018-12-05T07:58:33.508Z,7.37
2018-12-05T08:01:07.416Z,6.90
2018-12-05T08:03:41.327Z,7.20
2018-12-05T08:06:15.229Z,6.20
2018-12-05T08:08:48.932Z,7.77
2018-12-05T08:11:22.841Z,8.47
2018-12-05T08:13:57.213Z,7.70
2018-12-05T08:16:31.268Z,7.03
2018-12-05T08:19:05.246Z,6.43
2018-12-05T08:21:39.393Z,6.27
2018-12-05T08:24:13.501Z,5.10
2018-12-05T08:26:47.408Z,6.27
2018-12-05T08:29:21.417Z,5.17
2018-12-05T08:31:55.222Z,5.33
2018-12-05T08:34:29.190Z,5.30
2018-12-05T08:37:03.155Z,5.63
2018-12-05T08:39:37.202Z,5.80
2018-12-05T08:42:11.159Z,6.37
2018-12-05T08:44:45.786Z,6.80
2018-12-05T08:47:19.791Z,5.33
2018-12-05T08:49:53.700Z,5.20
2018-12-05T08:52:27.709Z,4.97
2018-12-05T08:55:01.923Z,4.87
2018-12-05T08:57:35.830Z,5.43
2018-12-05T09:00:09.843Z,4.70
2018-12-05T09:02:43.648Z,3.87
2018-12-05T09:05:17.661Z,4.80
2018-12-05T09:07:51.766Z,5.03
2018-12-05T09:10:25.673Z,4.80
2018-12-05T09:12:59.583Z,4.83
2018-12-05T09:15:33.489Z,5.17
2018-12-05T09:18:07.461Z,5.00
2018-12-05T09:20:41.507Z,4.80
2018-12-05T09:23:15.209Z,4.60
2018-12-05T09:25:49.186Z,6.37
2018-12-05T09:28:23.331Z,5.77
2018-12-05T09:30:57.340Z,6.07
2018-12-05T09:33:38.327Z,5.87
2018-12-05T09:36:12.733Z,4.73
2018-12-05T09:38:46.537Z,5.03
2018-12-05T09:41:20.445Z,4.67
2018-12-05T09:43:54.454Z,4.67
2018-12-05T09:46:28.361Z,4.90
2018-12-05T09:49:02.166Z,4.97
2018-12-05T09:51:36.073Z,5.30
2018-12-05T09:54:10.083Z,5.80
2018-12-05T09:56:44.093Z,6.43
2018-12-05T09:59:17.794Z,5.97
2018-12-05T10:01:51.861Z,5.33
2018-12-05T10:04:25.919Z,4.60
2018-12-05T10:06:59.724Z,4.90
2018-12-05T10:09:33.730Z,4.60
2018-12-05T10:12:07.740Z,5.17
2018-12-05T10:14:41.543Z,5.10
2018-12-05T10:17:15.656Z,4.90
2018-12-05T10:19:49.563Z,4.90
2018-12-05T10:22:23.471Z,4.97
2018-12-05T10:24:57.378Z,4.50
2018-12-05T10:27:32.394Z,4.83
2018-12-05T10:30:07.964Z,4.80
2018-12-05T10:32:41.967Z,5.17
2018-12-05T10:35:15.774Z,5.27
2018-12-05T10:37:49.866Z,4.97
2018-12-05T10:40:23.792Z,5.37
2018-12-05T10:42:57.766Z,5.23
2018-12-05T10:45:31.912Z,5.63
2018-12-05T10:48:05.923Z,5.40
2018-12-05T10:50:40.037Z,5.30
2018-12-05T10:53:13.940Z,5.40
2018-12-05T10:55:47.748Z,5.73
2018-12-05T10:58:21.838Z,4.93
2018-12-05T11:01:01.499Z,5.50
2018-12-05T11:03:35.570Z,5.70
2018-12-05T11:06:17.761Z,5.77
2018-12-05T11:08:57.297Z,6.00
2018-12-05T11:11:37.118Z,6.60
2018-12-05T11:14:16.839Z,7.10
2018-12-05T11:16:55.150Z,6.63
2018-12-05T11:19:34.795Z,6.70
2018-12-05T11:22:10.707Z,6.23
2018-12-05T11:24:44.653Z,5.97
2018-12-05T11:27:18.592Z,6.23
2018-12-05T11:29:52.674Z,6.10
2018-12-05T11:32:26.579Z,6.63
2018-12-05T11:35:00.692Z,6.23
2018-12-05T11:37:34.804Z,6.73
2018-12-05T11:40:08.711Z,6.50
2018-12-05T11:42:42.631Z,6.67
2018-12-05T11:45:16.731Z,7.13
2018-12-05T11:47:50.768Z,6.40
2018-12-05T11:50:24.854Z,6.20
2018-12-05T11:52:58.759Z,7.23
2018-12-05T11:55:32.871Z,7.03
2018-12-05T11:58:06.836Z,7.67
2018-12-05T12:00:40.980Z,7.13
2018-12-05T12:03:15.108Z,7.20
2018-12-05T12:05:49.313Z,7.87
2018-12-05T12:08:23.333Z,7.60
2018-12-05T12:10:57.547Z,8.50
2018-12-05T12:13:31.656Z,7.67
2018-12-05T12:16:05.873Z,8.33
2018-12-05T12:18:39.882Z,7.57
2018-12-05T12:21:13.788Z,7.57
2018-12-05T12:23:48.006Z,7.73
2018-12-05T12:26:21.908Z,7.47
2018-12-05T12:28:55.722Z,7.60
2018-12-05T12:31:29.722Z,7.93
2018-12-05T12:34:03.816Z,7.77
2018-12-05T12:36:37.845Z,8.90
2018-12-05T12:39:11.598Z,7.90
2018-12-05T12:41:45.761Z,7.83
2018-12-05T12:44:19.876Z,8.77
2018-12-05T12:46:53.679Z,7.50
2018-12-05T12:49:27.893Z,7.17
2018-12-05T12:52:01.779Z,7.30
2018-12-05T12:54:35.809Z,6.30
2018-12-05T12:57:09.590Z,6.40
2018-12-05T12:59:43.623Z,6.77
2018-12-05T13:02:17.530Z,6.87
2018-12-05T13:04:51.439Z,7.10
2018-12-05T13:07:25.244Z,7.50
2018-12-05T13:09:59.051Z,6.63
2018-12-05T13:12:35.110Z,7.33
2018-12-05T13:15:09.217Z,7.27
2018-12-05T13:17:43.139Z,7.03
2018-12-05T13:20:17.135Z,7.70
2018-12-05T13:22:50.940Z,7.57
2018-12-05T13:37:22.568Z,7.03
2018-12-05T13:39:56.376Z,6.97
2018-12-05T13:42:30.335Z,6.50
2018-12-05T13:45:04.917Z,6.33
2018-12-05T13:47:38.914Z,6.70
2018-12-05T13:50:12.926Z,7.03
2018-12-05T13:52:47.244Z,6.90
2018-12-05T13:55:21.251Z,6.27
2018-12-05T13:57:54.952Z,6.50
2018-12-05T14:00:28.963Z,6.40
2018-12-05T14:03:03.074Z,5.80
2018-12-05T14:05:37.084Z,5.60
2018-12-05T14:08:10.888Z,5.77
2018-12-05T14:10:44.796Z,5.20
2018-12-05T14:13:18.712Z,5.33
2018-12-05T14:15:52.611Z,4.80
2018-12-05T14:18:26.724Z,4.80
2018-12-05T14:21:00.518Z,4.50
2018-12-05T14:23:34.645Z,4.90
2018-12-05T14:26:08.413Z,4.53
2018-12-05T14:28:46.482Z,3.93
2018-12-05T14:31:20.320Z,4.33
2018-12-05T14:33:54.365Z,4.30
2018-12-05T14:36:28.374Z,4.30
2018-12-05T14:39:17.675Z,4.23
2018-12-05T14:41:51.650Z,3.70
2018-12-05T14:44:25.575Z,3.70
2018-12-05T14:46:59.772Z,3.67
2018-12-05T14:49:33.781Z,4.23
2018-12-05T14:52:07.692Z,3.87
2018-12-05T14:54:41.699Z,3.97
2018-12-05T14:57:15.708Z,4.50
2018-12-05T14:59:49.598Z,4.10
2018-12-05T15:02:23.625Z,3.70
2018-12-05T15:04:57.635Z,3.80
2018-12-05T15:07:31.646Z,3.93
2018-12-05T15:10:06.371Z,3.90
2018-12-05T15:12:40.278Z,4.03
2018-12-05T15:15:14.185Z,4.23
2018-12-05T15:17:48.116Z,4.30
2018-12-05T15:20:22.307Z,4.17
2018-12-05T15:22:56.324Z,4.80
2018-12-05T15:25:30.226Z,4.23
2018-12-05T15:28:04.234Z,4.17
2018-12-05T15:30:38.247Z,4.63
2018-12-05T15:33:12.253Z,4.43
2018-12-05T15:35:46.262Z,5.17
2018-12-05T15:38:20.281Z,4.00
2018-12-05T15:40:54.077Z,5.43
2018-12-05T15:43:27.881Z,5.27
2018-12-05T15:46:01.794Z,4.93
2018-12-05T15:48:35.903Z,5.00
2018-12-05T15:51:09.808Z,4.87
2018-12-05T15:53:43.820Z,4.80
2018-12-05T15:56:17.831Z,4.47
2018-12-05T15:58:51.736Z,4.20
2018-12-05T16:01:25.539Z,3.73
2018-12-05T16:03:59.462Z,3.60
2018-12-05T16:06:33.456Z,4.07
2018-12-05T16:09:07.297Z,3.80
2018-12-05T16:11:41.476Z,3.63
2018-12-05T16:14:15.468Z,3.70
2018-12-05T16:16:49.597Z,3.80
2018-12-05T16:19:23.504Z,3.83
2018-12-05T16:21:57.515Z,3.83
2018-12-05T16:24:31.422Z,4.03
2018-12-05T16:27:05.329Z,3.90
2018-12-05T16:29:39.236Z,3.70
2018-12-05T16:32:13.144Z,3.80
2018-12-05T16:34:47.050Z,3.80
2018-12-05T16:37:21.062Z,4.00
2018-12-05T16:39:54.882Z,3.80
2018-12-05T16:42:28.976Z,4.07
2018-12-05T16:45:02.885Z,4.07
2018-12-05T16:47:36.809Z,4.07
2018-12-05T16:50:11.006Z,4.00
2018-12-05T16:52:44.964Z,4.17
2018-12-05T16:55:19.006Z,3.60
2018-12-05T16:57:53.148Z,3.90
2018-12-05T17:00:26.942Z,3.97
2018-12-05T17:03:00.747Z,3.63
2018-12-05T17:05:34.657Z,3.67
2018-12-05T17:08:08.612Z,3.77
2018-12-05T17:10:42.675Z,3.50
2018-12-05T17:13:16.619Z,3.50
2018-12-05T17:15:50.700Z,3.53
2018-12-05T17:18:24.706Z,3.67
2018-12-05T17:20:58.609Z,3.50
2018-12-05T17:23:32.620Z,3.47
2018-12-05T17:26:06.529Z,3.50
2018-12-05T17:28:40.334Z,3.40
2018-12-05T17:31:14.137Z,3.10
2018-12-05T17:33:49.433Z,3.13
2018-12-05T17:36:23.386Z,3.10
2018-12-05T17:38:57.394Z,3.30
2018-12-05T17:41:31.310Z,3.23
2018-12-05T17:44:05.208Z,3.33
2018-12-05T17:46:39.280Z,3.47
2018-12-05T17:49:13.372Z,3.50
2018-12-05T17:51:47.345Z,3.20
2018-12-05T17:54:21.405Z,3.20
2018-12-05T17:56:55.575Z,3.13
2018-12-05T17:59:29.678Z,3.10
2018-12-05T18:02:03.788Z,3.47
2018-12-05T18:04:38.430Z,3.10
2018-12-05T18:07:12.729Z,3.60
2018-12-05T18:09:46.902Z,3.70
2018-12-05T18:12:20.955Z,4.37
2018-12-05T18:14:54.860Z,12.90
2018-12-05T18:17:28.671Z,8.03
2018-12-05T18:20:02.674Z,7.33
2018-12-05T18:22:36.615Z,9.00
2018-12-05T18:25:10.796Z,8.67
2018-12-05T18:27:45.728Z,7.57
2018-12-05T18:30:19.635Z,6.50
2018-12-05T18:32:53.598Z,5.03
2018-12-05T18:35:27.656Z,8.13
2018-12-05T18:38:01.685Z,6.27
2018-12-05T18:40:35.673Z,4.70
2018-12-05T18:43:09.569Z,4.20
2018-12-05T18:45:43.590Z,3.80
2018-12-05T18:48:17.497Z,3.80
2018-12-05T18:50:51.506Z,4.00
2018-12-05T19:09:16.197Z,3.13
2018-12-05T19:11:50.397Z,3.80
2018-12-05T19:14:30.019Z,3.80
2018-12-05T19:17:04.166Z,3.50
2018-12-05T19:19:38.380Z,3.90
2018-12-05T19:22:12.390Z,3.47
2018-12-05T19:24:47.222Z,3.63
2018-12-05T19:27:21.127Z,3.57
2018-12-05T19:29:54.937Z,3.40
2018-12-05T19:32:28.939Z,3.60
2018-12-05T19:35:03.252Z,3.50
2018-12-05T19:37:37.164Z,3.40
2018-12-05T19:40:14.249Z,3.33
2018-12-05T19:42:48.258Z,3.47
2018-12-05T19:45:21.968Z,3.50
2018-12-05T19:47:56.172Z,3.47
2018-12-05T19:50:30.079Z,3.53
2018-12-05T19:53:05.217Z,3.20
2018-12-05T19:55:39.839Z,3.07
2018-12-05T19:58:13.858Z,3.20
2018-12-05T20:00:47.915Z,3.33
2018-12-05T20:03:21.867Z,2.70
2018-12-05T20:05:55.781Z,2.67
2018-12-05T20:08:29.785Z,2.70
2018-12-05T20:11:03.593Z,2.67
2018-12-05T20:13:37.448Z,2.60
2018-12-05T20:16:11.404Z,2.50
2018-12-05T20:18:45.312Z,2.80
2018-12-05T20:21:19.314Z,2.90
2018-12-05T20:23:53.433Z,2.83
2018-12-05T20:26:27.144Z,3.00
2018-12-05T20:29:01.145Z,2.80
2018-12-05T20:31:35.052Z,2.77
2018-12-05T20:34:08.975Z,3.00
2018-12-05T20:36:42.971Z,2.87
2018-12-05T20:39:16.778Z,3.27
2018-12-05T20:45:08.622Z,3.20
2018-12-05T20:47:42.530Z,2.90
2018-12-05T20:50:16.335Z,3.10
2018-12-05T20:52:50.243Z,3.07
2018-12-05T20:55:24.252Z,3.00
2018-12-05T20:57:58.692Z,3.10
2018-12-05T21:00:34.522Z,2.90
2018-12-05T21:03:08.430Z,2.80
2018-12-05T21:05:42.651Z,2.83
2018-12-05T21:08:16.551Z,2.80
2018-12-05T21:10:50.458Z,2.90
2018-12-05T21:13:24.448Z,2.53
2018-12-05T21:15:58.586Z,2.60
2018-12-05T21:18:32.491Z,2.80
2018-12-05T21:21:06.600Z,2.50
2018-12-05T21:23:40.608Z,2.60
2018-12-05T21:26:14.517Z,3.10
2018-12-05T21:28:48.425Z,2.90
2018-12-05T21:31:22.182Z,2.70
2018-12-05T21:33:56.321Z,2.70
2018-12-05T21:36:30.252Z,2.63
2018-12-05T21:39:06.790Z,3.00
2018-12-05T21:41:40.929Z,2.40
2018-12-05T21:44:15.144Z,3.00
2018-12-05T21:46:48.950Z,2.50
2018-12-05T21:49:22.867Z,2.90
2018-12-05T21:51:56.662Z,2.73
2018-12-05T21:54:30.578Z,2.70
2018-12-05T21:57:04.577Z,2.70
2018-12-05T21:59:39.408Z,2.50
2018-12-05T22:02:13.519Z,2.67
2018-12-05T22:04:47.505Z,2.70
2018-12-05T22:07:21.743Z,3.10
2018-12-05T22:09:55.776Z,2.50
2018-12-05T22:12:29.660Z,2.67
2018-12-05T22:15:03.566Z,2.73
2018-12-05T22:17:37.371Z,2.80
2018-12-05T22:20:11.177Z,2.50
2018-12-05T22:22:44.983Z,2.97
2018-12-05T22:25:18.888Z,2.50
2018-12-05T22:27:52.693Z,2.60
2018-12-05T22:30:26.497Z,2.57
2018-12-05T22:33:00.304Z,3.67
2018-12-05T22:35:34.220Z,4.23
2018-12-05T22:38:08.117Z,5.37
2018-12-05T22:40:42.024Z,4.57
2018-12-05T22:43:15.835Z,5.90
2018-12-05T22:45:49.736Z,6.40
2018-12-05T22:48:23.643Z,7.83
2018-12-05T22:50:57.652Z,4.17
2018-12-05T22:53:31.542Z,4.30
2018-12-05T22:56:05.631Z,4.27
2018-12-05T22:58:39.785Z,4.30
2018-12-05T23:01:13.795Z,6.47
2018-12-05T23:03:48.008Z,8.83
2018-12-05T23:06:21.916Z,4.27
2018-12-05T23:08:55.823Z,3.77
2018-12-05T23:11:29.730Z,4.73
2018-12-05T23:14:03.651Z,5.07
2018-12-05T23:16:37.803Z,4.80
2018-12-05T23:19:11.894Z,4.00
2018-12-05T23:21:45.972Z,3.90
2018-12-05T23:24:19.779Z,4.40
2018-12-05T23:26:54.896Z,4.27
2018-12-05T23:29:29.132Z,4.33
2018-12-05T23:32:03.098Z,4.30
2018-12-05T23:34:37.353Z,4.43
2018-12-05T23:37:11.157Z,4.60
2018-12-05T23:39:45.270Z,4.63
2018-12-05T23:42:19.178Z,4.33
2018-12-05T23:44:53.089Z,5.13
2018-12-05T23:47:26.999Z,4.73
2018-12-05T23:50:01.001Z,4.90
2018-12-05T23:52:34.909Z,6.37
2018-12-05T23:55:08.712Z,5.53
2018-12-05T23:57:42.620Z,4.80
